Aérodrome :
LOGIN :

S'inscrire | Disclaimer

   EN    FR    IT 

 










Légende :    VFR   VFR Marginal   IFR   IFR Intensif   IFR Très Intensif
Visi : 
Plafond : 
>= 8 km
>= 3000ft
5 à 8 km
1000 à 3000 ft
1500m à 5 km
500 à 1000 ft
800 à 1500m
200 à 500 ft
< 800m
< 200 ft
Symboles :   Orages  Brouillard  Fortes neiges  Fortes précipitations  Vent > 20 kt
SIGMETs :   Divers  Orages  Givrage  Turbulence  Onde Orograph.  Cendres Volcan.






- Altitude de l'aérodrome : 359 ft
- Code IATA : BVA


LFOB - Beauvais

DERNIER METAR :
  • 270730Z AUTO 20007KT 9999 -RA SCT009/// BKN034/// BKN046/// ///CB 08/07 Q1008 TEMPO 3000 RA BKN007 SCT025TCU OVC040

METARs EXPIRÉS :
  • 270700Z AUTO 20004KT 9999 BKN009/// BKN017/// BKN072/// ///TCU 08/07 Q1008 TEMPO 3000 RA
  • 270630Z AUTO 22005KT 9999 SCT016 BKN024 BKN070 08/07 Q1008 TEMPO 3000 RA BKN007 SCT025TCU OVC040
  • 270600Z AUTO 23008KT 9999 BKN011 BKN020 BKN052 09/08 Q1009 TEMPO 3000 RA BKN007 SCT025TCU OVC040
  • 270530Z AUTO 22010KT 9999 BKN010 OVC016 09/08 Q1009 TEMPO 3000 RA BKN007 SCT025TCU
  • 270500Z AUTO 21010KT 9999 BKN010 OVC014 09/08 Q1009 TEMPO 3000 RA BKN007 SCT025TCU

TAF TAF LFOB
Valide du 27 à 06h jusqu'au 28 à 06h UTC


270500Z 2706/2806 21013KT 9999 OVC030
TEMPO 2706/2723 3000 RA BKN007 SCT025TCU OVC040
TEMPO 2723/2806 23025G35KT 2000 SHRA BKN015CB
PROB30
TEMPO 2800/2806 TSRA
ATIS : +33 3 44 11 49 28



MET'MAP, la Météo Aéronautique d'un coup d'oeil ! - Copyright ORBIFLY Décembre 2007 - Disclaimer

ORBIFLY MET'MAP TEAM :

Programmation & Développement : Alexandra Zaïnal
Sur une idée originale de : Baudouin d'Aumeries
Assistance à la programmation : Marc-Olivier Méhu
Soutien technique & logistique : Manuel Goepfert

Contact : metmap@orbifly.com




SOURCES & CREDITS :

   NOAA